createdAt,value
2022-10-10T00:01:24.400Z,99036.91
2022-10-10T00:03:51.373Z,99026.44
2022-10-10T00:06:18.119Z,99033.53
2022-10-10T00:08:45.615Z,99032.66
2022-10-10T00:11:13.989Z,99028.31
2022-10-10T00:13:41.153Z,99026.63
2022-10-10T00:16:11.394Z,99015.28
2022-10-10T00:18:38.446Z,99019.84
2022-10-10T00:21:05.751Z,99010.13
2022-10-10T00:23:32.349Z,99007.50
2022-10-10T00:25:59.020Z,99011.88
2022-10-10T00:28:25.619Z,99006.56
2022-10-10T00:30:52.337Z,99008.31
2022-10-10T00:33:19.079Z,99007.41
2022-10-10T00:35:45.570Z,99000.34
2022-10-10T00:38:13.618Z,98994.09
2022-10-10T00:40:52.092Z,99006.38
2022-10-10T00:43:18.743Z,98995.81
2022-10-10T00:45:47.039Z,98991.41
2022-10-10T00:48:22.317Z,98986.13
2022-10-10T00:50:55.498Z,98982.59
2022-10-10T00:53:27.152Z,98984.34
2022-10-10T00:55:54.818Z,98981.75
2022-10-10T00:58:22.269Z,98973.81
2022-10-10T01:00:48.767Z,98970.31
2022-10-10T01:03:15.344Z,98972.06
2022-10-10T01:05:42.733Z,98966.81
2022-10-10T01:08:10.362Z,98957.16
2022-10-10T01:10:56.453Z,98966.84
2022-10-10T01:13:44.303Z,98960.69
2022-10-10T01:16:33.957Z,98968.66
2022-10-10T01:19:25.652Z,98957.22
2022-10-10T01:22:34.033Z,98958.09
2022-10-10T01:25:13.523Z,98961.66
2022-10-10T01:27:51.693Z,98950.22
2022-10-10T01:30:22.627Z,98956.34
2022-10-10T01:32:54.229Z,98955.47
2022-10-10T01:35:46.587Z,98958.09
2022-10-10T01:38:41.802Z,98942.22
2022-10-10T01:41:18.427Z,98946.59
2022-10-10T01:43:44.972Z,98943.94
2022-10-10T01:46:17.063Z,98941.28
2022-10-10T01:48:45.290Z,98941.28
2022-10-10T01:51:27.005Z,98927.22
2022-10-10T01:54:25.803Z,98927.19
2022-10-10T01:57:16.730Z,98925.47
2022-10-10T02:00:04.833Z,98913.13
2022-10-10T02:02:41.768Z,98914.94
2022-10-10T02:05:17.428Z,98913.19
2022-10-10T02:07:50.845Z,98911.41
2022-10-10T02:10:24.666Z,98903.47
2022-10-10T02:12:51.850Z,98896.38
2022-10-10T02:15:23.051Z,98895.50
2022-10-10T02:17:51.935Z,98892.84
2022-10-10T02:20:23.876Z,98888.41
2022-10-10T02:22:51.937Z,98895.47
2022-10-10T02:25:24.060Z,98896.34
2022-10-10T02:28:03.047Z,98896.34
2022-10-10T02:30:30.255Z,98888.41
2022-10-10T02:33:01.266Z,98897.22
2022-10-10T02:35:32.660Z,98898.09
2022-10-10T02:38:02.521Z,98903.38
2022-10-10T02:40:32.112Z,98907.81
2022-10-10T02:43:01.647Z,98905.16
2022-10-10T02:45:29.652Z,98905.19
2022-10-10T02:47:56.266Z,98896.38
2022-10-10T02:50:23.060Z,98899.03
2022-10-10T02:52:49.780Z,98887.56
2022-10-10T02:55:16.478Z,98882.31
2022-10-10T02:57:42.963Z,98882.31
2022-10-10T03:00:10.025Z,98888.47
2022-10-10T03:02:36.514Z,98878.75
2022-10-10T03:05:05.633Z,98876.13
2022-10-10T03:07:32.452Z,98881.44
2022-10-10T03:09:58.888Z,98887.59
2022-10-10T03:12:25.345Z,98883.19
2022-10-10T03:14:51.873Z,98878.75
2022-10-10T03:17:18.322Z,98882.28
2022-10-10T03:19:44.836Z,98872.56
2022-10-10T03:22:11.312Z,98869.03
2022-10-10T03:24:37.800Z,98861.09
2022-10-10T03:27:04.322Z,98873.44
2022-10-10T03:29:30.977Z,98868.16
2022-10-10T03:31:57.582Z,98869.03
2022-10-10T03:34:24.126Z,98862.88
2022-10-10T03:36:50.578Z,98864.59
2022-10-10T03:39:17.118Z,98869.00
2022-10-10T03:41:43.592Z,98857.56
2022-10-10T03:44:10.197Z,98863.69
2022-10-10T03:46:36.695Z,98865.47
2022-10-10T03:49:03.582Z,98851.34
2022-10-10T03:51:30.104Z,98858.38
2022-10-10T03:53:56.555Z,98852.22
2022-10-10T03:56:23.025Z,98846.94
2022-10-10T03:58:49.562Z,98853.09
2022-10-10T04:01:16.146Z,98846.06
2022-10-10T04:03:42.682Z,98844.28
2022-10-10T04:06:09.274Z,98846.94
2022-10-10T04:08:35.794Z,98840.78
2022-10-10T04:11:02.341Z,98838.19
2022-10-10T04:13:28.963Z,98827.59
2022-10-10T04:15:56.923Z,98821.47
2022-10-10T04:18:24.123Z,98823.22
2022-10-10T04:20:50.901Z,98824.97
2022-10-10T04:23:17.780Z,98825.88
2022-10-10T04:25:44.644Z,98822.31
2022-10-10T04:28:12.549Z,98813.53
2022-10-10T04:30:39.282Z,98812.63
2022-10-10T04:33:06.436Z,98807.34
2022-10-10T04:35:32.999Z,98806.44
2022-10-10T04:37:59.532Z,98801.19
2022-10-10T04:40:26.973Z,98795.03
2022-10-10T04:42:55.512Z,98801.19
2022-10-10T04:45:22.760Z,98795.94
2022-10-10T04:47:49.232Z,98802.06
2022-10-10T04:50:15.759Z,98803.81
2022-10-10T04:52:42.299Z,98799.41
2022-10-10T04:55:08.850Z,98802.94
2022-10-10T04:57:35.344Z,98802.94
2022-10-10T05:00:02.050Z,98802.06
2022-10-10T05:02:28.545Z,98795.88
2022-10-10T05:04:55.210Z,98799.41
2022-10-10T05:07:21.837Z,98795.88
2022-10-10T05:09:48.303Z,98787.09
2022-10-10T05:12:14.879Z,98777.38
2022-10-10T05:14:45.868Z,98780.03
2022-10-10T05:17:14.572Z,98780.03
2022-10-10T05:19:41.129Z,98788.81
2022-10-10T05:22:10.887Z,98785.31
2022-10-10T05:24:37.502Z,98788.88
2022-10-10T05:27:04.045Z,98776.50
2022-10-10T05:29:30.555Z,98780.03
2022-10-10T05:31:57.034Z,98776.50
2022-10-10T05:34:23.518Z,98781.78
2022-10-10T05:36:50.024Z,98789.72
2022-10-10T05:39:16.535Z,98779.09
2022-10-10T05:41:43.082Z,98781.72
2022-10-10T05:44:10.142Z,98785.28
2022-10-10T05:46:36.593Z,98770.28
2022-10-10T05:49:03.430Z,98774.75
2022-10-10T05:51:29.912Z,98772.09
2022-10-10T05:53:57.361Z,98767.66
2022-10-10T05:56:23.951Z,98767.66
2022-10-10T05:58:51.491Z,98758.88
2022-10-10T06:01:18.463Z,98768.59
2022-10-10T06:03:44.898Z,98765.09
2022-10-10T06:06:11.396Z,98761.53
2022-10-10T06:08:37.909Z,98763.31
2022-10-10T06:11:08.111Z,98763.28
2022-10-10T06:13:35.199Z,98769.47
2022-10-10T06:16:01.693Z,98763.28
2022-10-10T06:18:28.218Z,98767.69
2022-10-10T06:20:54.799Z,98768.59
2022-10-10T06:23:21.297Z,98767.69
2022-10-10T06:25:47.827Z,98772.13
2022-10-10T06:28:14.391Z,98764.19
2022-10-10T06:30:42.800Z,98767.69
2022-10-10T06:33:11.095Z,98765.91
2022-10-10T06:35:48.051Z,98760.66
2022-10-10T06:38:16.410Z,98759.78
2022-10-10T06:40:43.323Z,98757.09
2022-10-10T06:43:12.290Z,98763.28
2022-10-10T06:45:40.732Z,98763.28
2022-10-10T06:48:07.766Z,98754.50
2022-10-10T06:50:35.243Z,98761.56
2022-10-10T06:53:02.292Z,98763.31
2022-10-10T06:55:28.806Z,98768.59
2022-10-10T06:57:55.530Z,98766.84
2022-10-10T07:00:22.040Z,98767.69
2022-10-10T07:02:48.855Z,98766.81
2022-10-10T07:05:17.717Z,98764.19
2022-10-10T07:07:45.447Z,98766.81
2022-10-10T07:10:14.988Z,98768.56
2022-10-10T07:12:44.757Z,98765.03
2022-10-10T07:15:11.955Z,98763.28
2022-10-10T07:17:39.203Z,98771.22
2022-10-10T07:20:06.169Z,98766.81
2022-10-10T07:22:33.029Z,98770.34
2022-10-10T07:24:59.590Z,98773.88
2022-10-10T07:27:26.052Z,98774.75
2022-10-10T07:29:52.595Z,98773.84
2022-10-10T07:32:19.078Z,98770.31
2022-10-10T07:34:45.555Z,98776.50
2022-10-10T07:37:12.012Z,98780.03
2022-10-10T07:39:38.512Z,98779.16
2022-10-10T07:42:05.019Z,98777.41
2022-10-10T07:44:34.593Z,98776.53
2022-10-10T07:47:01.537Z,98773.81
2022-10-10T07:49:28.189Z,98776.47
2022-10-10T07:51:58.901Z,98769.38
2022-10-10T07:54:28.365Z,98784.38
2022-10-10T07:56:54.845Z,98777.31
2022-10-10T07:59:21.724Z,98772.91
2022-10-10T08:01:48.417Z,98765.66
2022-10-10T08:04:14.936Z,98758.34
2022-10-10T08:06:41.460Z,98749.38
2022-10-10T08:09:08.157Z,98761.56
2022-10-10T08:11:34.697Z,98762.25
2022-10-10T08:14:01.228Z,98761.22
2022-10-10T08:16:28.163Z,98750.41
2022-10-10T08:18:54.615Z,98757.34
2022-10-10T08:21:21.242Z,98765.16
2022-10-10T08:23:48.178Z,98757.06
2022-10-10T08:26:16.231Z,98767.53
2022-10-10T08:28:43.210Z,98756.94
2022-10-10T08:31:18.931Z,98753.56
2022-10-10T08:33:46.552Z,98755.38
2022-10-10T08:36:15.803Z,98754.50
2022-10-10T08:38:42.643Z,98753.47
2022-10-10T08:41:33.968Z,98748.59
2022-10-10T08:44:04.787Z,98745.34
2022-10-10T08:46:39.161Z,98744.94
2022-10-10T08:49:19.199Z,98737.50
2022-10-10T08:51:52.212Z,98732.75
2022-10-10T08:54:22.469Z,98724.47
2022-10-10T08:56:50.296Z,98726.75
2022-10-10T08:59:25.704Z,98718.44
2022-10-10T09:02:18.831Z,98710.84
2022-10-10T09:04:46.766Z,98716.81
2022-10-10T09:07:24.754Z,98706.94
2022-10-10T09:10:29.106Z,98715.69
2022-10-10T09:12:58.510Z,98725.91
2022-10-10T09:15:32.304Z,98714.16
2022-10-10T09:18:12.291Z,98714.88
2022-10-10T09:20:55.776Z,98718.97
2022-10-10T09:23:27.339Z,98722.41
2022-10-10T09:26:01.126Z,98716.06
2022-10-10T09:28:39.732Z,98721.41
2022-10-10T09:31:38.128Z,98727.22
2022-10-10T09:34:19.173Z,98719.88
2022-10-10T09:36:47.799Z,98716.31
2022-10-10T09:39:23.295Z,98716.75
2022-10-10T09:41:59.976Z,98710.25
2022-10-10T09:44:27.452Z,98713.63
2022-10-10T09:46:55.205Z,98715.16
2022-10-10T09:49:22.203Z,98716.84
2022-10-10T09:51:49.670Z,98718.53
2022-10-10T09:54:18.985Z,98714.13
2022-10-10T09:56:52.013Z,98716.97
2022-10-10T09:59:38.500Z,98715.78
2022-10-10T10:02:23.451Z,98722.72
2022-10-10T10:04:52.514Z,98721.03
2022-10-10T10:07:20.786Z,98720.28
2022-10-10T10:09:57.344Z,98708.34
2022-10-10T10:12:27.697Z,98716.56
2022-10-10T10:15:00.943Z,98713.47
2022-10-10T10:17:27.772Z,98700.06
2022-10-10T10:19:54.532Z,98698.69
2022-10-10T10:22:31.834Z,98697.53
2022-10-10T10:24:59.852Z,98688.69
2022-10-10T10:27:28.152Z,98695.78
2022-10-10T10:29:57.844Z,98701.53
2022-10-10T10:32:39.267Z,98689.63
2022-10-10T10:35:05.693Z,98696.94
2022-10-10T10:38:01.935Z,98688.41
2022-10-10T10:40:56.942Z,98694.53
2022-10-10T10:43:44.857Z,98696.72
2022-10-10T10:46:19.257Z,98697.31
2022-10-10T10:48:46.921Z,98704.41
2022-10-10T10:51:37.637Z,98703.44
2022-10-10T10:54:29.260Z,98698.13
2022-10-10T10:57:37.124Z,98702.97
2022-10-10T11:00:47.223Z,98699.41
2022-10-10T11:05:18.124Z,98695.31
2022-10-10T11:07:19.866Z,98696.16
2022-10-10T11:10:16.108Z,98690.84
2022-10-10T11:13:10.381Z,98684.72
2022-10-10T11:18:38.086Z,98678.69
2022-10-10T11:21:11.532Z,98677.81
2022-10-10T11:24:08.735Z,98677.56
2022-10-10T11:26:44.009Z,98678.44
2022-10-10T11:29:20.004Z,98683.41
2022-10-10T11:32:13.745Z,98675.88
2022-10-10T11:34:53.930Z,98685.69
2022-10-10T11:37:26.877Z,98674.13
2022-10-10T11:39:56.285Z,98676.22
2022-10-10T11:42:29.782Z,98671.81
2022-10-10T11:45:04.634Z,98683.94
2022-10-10T11:47:35.157Z,98673.50
2022-10-10T11:50:19.757Z,98675.13
2022-10-10T11:53:02.199Z,98673.38
2022-10-10T11:55:40.211Z,98686.81
2022-10-10T11:58:06.654Z,98677.75
2022-10-10T12:00:43.166Z,98683.09
2022-10-10T12:03:10.443Z,98677.66
2022-10-10T12:05:41.793Z,98674.72
2022-10-10T12:08:35.142Z,98679.13
2022-10-10T12:11:11.887Z,98675.25
2022-10-10T12:13:46.410Z,98670.47
2022-10-10T12:16:18.741Z,98682.19
2022-10-10T12:18:51.122Z,98678.69
2022-10-10T12:21:26.080Z,98680.84
2022-10-10T12:24:13.827Z,98673.72
2022-10-10T12:26:52.548Z,98679.19
2022-10-10T12:29:46.754Z,98664.06
2022-10-10T12:32:15.466Z,98671.38
2022-10-10T12:34:47.785Z,98670.44
2022-10-10T12:37:27.476Z,98672.91
2022-10-10T12:40:06.079Z,98680.13
2022-10-10T12:42:35.182Z,98671.47
2022-10-10T12:45:01.679Z,98676.81
2022-10-10T12:47:59.939Z,98668.59
2022-10-10T12:50:27.804Z,98665.19
2022-10-10T12:53:14.251Z,98667.78
2022-10-10T12:55:44.957Z,98676.78
2022-10-10T12:58:28.032Z,98671.38
2022-10-10T13:01:01.878Z,98672.50
2022-10-10T13:03:42.140Z,98678.75
2022-10-10T13:06:15.293Z,98677.88
2022-10-10T13:08:42.083Z,98683.63
2022-10-10T13:11:13.972Z,98676.59
2022-10-10T13:13:41.067Z,98675.66
2022-10-10T13:16:09.842Z,98674.78
2022-10-10T13:18:37.926Z,98672.25
2022-10-10T13:21:07.347Z,98675.19
2022-10-10T13:23:41.776Z,98673.34
2022-10-10T13:26:22.265Z,98669.84
2022-10-10T13:28:50.144Z,98669.63
2022-10-10T13:31:17.577Z,98669.72
2022-10-10T13:33:44.278Z,98669.84
2022-10-10T13:36:20.840Z,98677.00
2022-10-10T13:38:49.105Z,98676.41
2022-10-10T13:41:18.831Z,98675.53
2022-10-10T13:43:45.466Z,98680.03
2022-10-10T13:46:22.358Z,98668.66
2022-10-10T13:48:50.522Z,98671.19
2022-10-10T13:51:17.302Z,98664.91
2022-10-10T13:53:45.413Z,98672.88
2022-10-10T13:56:23.129Z,98665.91
2022-10-10T13:58:57.089Z,98671.47
2022-10-10T14:01:35.893Z,98672.53
2022-10-10T14:04:37.315Z,98684.69
2022-10-10T14:07:07.793Z,98677.50
2022-10-10T14:09:41.432Z,98671.31
2022-10-10T14:12:34.169Z,98675.84
2022-10-10T14:15:02.442Z,98674.09
2022-10-10T14:17:29.567Z,98672.59
2022-10-10T14:19:56.632Z,98683.72
2022-10-10T14:22:23.433Z,98675.81
2022-10-10T14:24:49.964Z,98672.63
2022-10-10T14:27:23.722Z,98679.78
2022-10-10T14:29:51.542Z,98678.94
2022-10-10T14:32:19.253Z,98683.34
2022-10-10T14:34:46.356Z,98676.13
2022-10-10T14:37:23.628Z,98681.59
2022-10-10T14:39:50.993Z,98670.91
2022-10-10T14:42:19.866Z,98673.75
2022-10-10T14:44:46.499Z,98683.72
2022-10-10T14:47:17.809Z,98690.00
2022-10-10T14:49:44.616Z,98686.44
2022-10-10T14:52:11.242Z,98686.59
2022-10-10T14:54:38.021Z,98684.94
2022-10-10T14:57:07.378Z,98684.13
2022-10-10T14:59:46.347Z,98692.03
2022-10-10T15:02:22.127Z,98696.56
2022-10-10T15:04:49.165Z,98701.03
2022-10-10T15:07:16.491Z,98698.38
2022-10-10T15:10:09.675Z,98700.97
2022-10-10T15:12:32.569Z,98693.69
2022-10-10T15:14:59.085Z,98701.91
2022-10-10T15:17:27.054Z,98706.59
2022-10-10T15:19:53.607Z,98710.28
2022-10-10T15:22:20.139Z,98716.56
2022-10-10T15:24:46.600Z,98715.78
2022-10-10T15:27:13.377Z,98719.41
2022-10-10T15:29:39.856Z,98732.88
2022-10-10T15:32:06.626Z,98737.38
2022-10-10T15:34:33.402Z,98734.78
2022-10-10T15:36:59.910Z,98735.81
2022-10-10T15:39:26.469Z,98734.25
2022-10-10T15:41:52.950Z,98743.97
2022-10-10T15:44:19.599Z,98735.06
2022-10-10T15:46:46.277Z,98745.13
2022-10-10T15:49:14.098Z,98742.50
2022-10-10T15:51:45.521Z,98740.94
2022-10-10T15:54:12.583Z,98754.47
2022-10-10T15:56:39.505Z,98747.47
2022-10-10T15:59:08.335Z,98755.44
2022-10-10T16:01:35.412Z,98751.91
2022-10-10T16:04:03.968Z,98757.25
2022-10-10T16:06:30.684Z,98755.56
2022-10-10T16:09:16.454Z,98763.53
2022-10-10T16:11:43.658Z,98765.38
2022-10-10T16:14:10.224Z,98761.81
2022-10-10T16:16:37.291Z,98765.59
2022-10-10T16:19:03.846Z,98764.91
2022-10-10T16:21:33.305Z,98767.63
2022-10-10T16:24:00.440Z,98762.25
2022-10-10T16:26:30.681Z,98766.75
2022-10-10T16:28:57.218Z,98775.78
2022-10-10T16:31:25.038Z,98777.69
2022-10-10T16:33:55.217Z,98780.44
2022-10-10T16:36:27.110Z,98786.72
2022-10-10T16:38:54.805Z,98785.84
2022-10-10T16:41:45.925Z,98785.97
2022-10-10T16:44:07.907Z,98785.09
2022-10-10T16:46:34.584Z,98789.47
2022-10-10T16:49:01.143Z,98786.78
2022-10-10T16:51:29.763Z,98791.19
2022-10-10T16:54:00.537Z,98792.84
2022-10-10T16:56:27.423Z,98798.19
2022-10-10T16:58:54.696Z,98800.88
2022-10-10T17:01:23.330Z,98805.28
2022-10-10T17:03:51.370Z,98805.19
2022-10-10T17:06:21.061Z,98800.75
2022-10-10T17:08:52.518Z,98807.78
2022-10-10T17:11:21.697Z,98815.84
2022-10-10T17:13:49.138Z,98820.34
2022-10-10T17:19:09.698Z,98823.00
2022-10-10T17:21:36.185Z,98829.25
2022-10-10T17:24:02.922Z,98833.72
2022-10-10T17:26:29.475Z,98838.38
2022-10-10T17:28:57.537Z,98846.44
2022-10-10T17:31:25.514Z,98843.66
2022-10-10T17:33:54.197Z,98849.97
2022-10-10T17:36:27.012Z,98853.59
2022-10-10T17:38:56.040Z,98856.22
2022-10-10T17:41:23.301Z,98859.75
2022-10-10T17:43:49.836Z,98873.09
2022-10-10T17:46:35.889Z,98864.22
2022-10-10T17:49:08.426Z,98881.06
2022-10-10T17:51:36.206Z,98873.84
2022-10-10T17:54:04.335Z,98881.66
2022-10-10T17:56:31.609Z,98886.97
2022-10-10T17:59:01.385Z,98903.06
2022-10-10T18:01:30.513Z,98894.16
2022-10-10T18:03:57.497Z,98892.41
2022-10-10T18:06:24.116Z,98905.78
2022-10-10T18:08:52.320Z,98901.28
2022-10-10T18:11:24.016Z,98905.63
2022-10-10T18:13:51.279Z,98907.44
2022-10-10T18:16:20.615Z,98918.88
2022-10-10T18:18:51.425Z,98923.25
2022-10-10T18:21:20.785Z,98926.00
2022-10-10T18:23:47.656Z,98926.88
2022-10-10T18:26:17.352Z,98935.66
2022-10-10T18:28:44.075Z,98930.38
2022-10-10T18:31:17.266Z,98939.34
2022-10-10T18:33:44.869Z,98942.00
2022-10-10T18:36:14.061Z,98950.88
2022-10-10T18:38:41.081Z,98966.94
2022-10-10T18:41:22.012Z,98966.22
2022-10-10T18:43:49.562Z,98976.00
2022-10-10T18:46:19.517Z,98978.75
2022-10-10T18:48:51.311Z,98978.72
2022-10-10T18:51:24.191Z,98992.38
2022-10-10T18:53:54.772Z,98983.63
2022-10-10T18:56:24.696Z,98998.97
2022-10-10T18:58:54.863Z,98995.81
2022-10-10T19:01:24.823Z,99007.69
2022-10-10T19:03:52.844Z,99013.22
2022-10-10T19:06:20.630Z,99012.41
2022-10-10T19:08:47.159Z,99016.88
2022-10-10T19:11:23.040Z,99012.53
2022-10-10T19:13:50.194Z,99012.59
2022-10-10T19:16:17.006Z,99015.31
2022-10-10T19:18:44.216Z,99019.81
2022-10-10T19:21:12.414Z,99028.72
2022-10-10T19:23:40.456Z,99021.69
2022-10-10T19:26:11.881Z,99030.59
2022-10-10T19:28:39.206Z,99032.38
2022-10-10T19:31:09.638Z,99028.84
2022-10-10T19:33:40.046Z,99028.78
2022-10-10T19:36:11.358Z,99042.19
2022-10-10T19:38:41.042Z,99044.84
2022-10-10T19:41:09.402Z,99048.41
2022-10-10T19:43:36.682Z,99054.63
2022-10-10T19:46:08.339Z,99058.16
2022-10-10T19:48:36.936Z,99058.19
2022-10-10T19:51:05.955Z,99057.31
2022-10-10T19:53:36.490Z,99062.66
2022-10-10T19:56:06.675Z,99064.44
2022-10-10T19:58:34.088Z,99076.88
2022-10-10T20:01:00.874Z,99065.38
2022-10-10T20:03:27.420Z,99078.66
2022-10-10T20:06:02.967Z,99079.56
2022-10-10T20:08:29.987Z,99069.75
2022-10-10T20:10:56.793Z,99083.03
2022-10-10T20:13:23.293Z,99081.28
2022-10-10T20:15:50.296Z,99084.84
2022-10-10T20:18:18.772Z,99091.91
2022-10-10T20:20:49.022Z,99093.69
2022-10-10T20:23:17.726Z,99103.50
2022-10-10T20:25:45.601Z,99106.25
2022-10-10T20:28:18.009Z,99105.34
2022-10-10T20:30:50.926Z,99120.44
2022-10-10T20:33:21.097Z,99119.66
2022-10-10T20:35:50.189Z,99137.50
2022-10-10T20:38:20.251Z,99145.69
2022-10-10T20:40:46.856Z,99160.84
2022-10-10T20:43:14.695Z,99157.44
2022-10-10T20:45:41.305Z,99174.41
2022-10-10T20:48:08.220Z,99190.56
2022-10-10T20:50:38.441Z,99189.78
2022-10-10T20:53:06.337Z,99196.91
2022-10-10T20:55:32.994Z,99205.75
2022-10-10T20:57:59.616Z,99220.84
2022-10-10T21:00:26.467Z,99213.78
2022-10-10T21:02:56.012Z,99220.88
2022-10-10T21:05:22.717Z,99219.97
2022-10-10T21:07:52.060Z,99221.78
2022-10-10T21:10:18.561Z,99221.75
2022-10-10T21:12:45.087Z,99226.19
2022-10-10T21:15:11.593Z,99225.28
2022-10-10T21:17:38.234Z,99225.38
2022-10-10T21:20:05.640Z,99229.81
2022-10-10T21:22:35.179Z,99236.06
2022-10-10T21:25:01.652Z,99237.81
2022-10-10T21:27:28.158Z,99243.97
2022-10-10T21:29:54.626Z,99248.41
2022-10-10T21:32:21.105Z,99251.09
2022-10-10T21:34:47.859Z,99255.50
2022-10-10T21:37:14.347Z,99265.28
2022-10-10T21:39:40.834Z,99260.84
2022-10-10T21:42:07.314Z,99265.25
2022-10-10T21:44:33.897Z,99274.09
2022-10-10T21:47:00.399Z,99284.75
2022-10-10T21:49:26.858Z,99282.09
2022-10-10T21:51:53.333Z,99285.66
2022-10-10T21:54:27.247Z,99295.38
2022-10-10T21:56:53.741Z,99295.38
2022-10-10T21:59:20.258Z,99302.47
2022-10-10T22:01:46.766Z,99300.72
2022-10-10T22:04:13.286Z,99314.03
2022-10-10T22:06:42.794Z,99316.69
2022-10-10T22:09:09.321Z,99320.22
2022-10-10T22:11:35.872Z,99323.72
2022-10-10T22:14:03.125Z,99325.53
2022-10-10T22:16:30.456Z,99331.72
2022-10-10T22:18:57.757Z,99330.84
2022-10-10T22:21:30.045Z,99331.72
2022-10-10T22:23:58.356Z,99341.47
2022-10-10T22:26:25.466Z,99345.03
2022-10-10T22:28:52.095Z,99341.47
2022-10-10T22:31:19.041Z,99344.16
2022-10-10T22:33:45.577Z,99337.97
2022-10-10T22:36:13.043Z,99342.38
2022-10-10T22:38:41.775Z,99351.22
2022-10-10T22:41:09.356Z,99352.09
2022-10-10T22:43:36.221Z,99356.53
2022-10-10T22:46:03.553Z,99351.19
2022-10-10T22:48:30.399Z,99359.16
2022-10-10T22:51:23.466Z,99356.50
2022-10-10T22:53:50.226Z,99360.91
2022-10-10T22:56:20.063Z,99367.97
2022-10-10T22:58:48.642Z,99371.47
2022-10-10T23:01:18.565Z,99366.13
2022-10-10T23:03:45.643Z,99369.66
2022-10-10T23:06:12.268Z,99367.00
2022-10-10T23:08:38.790Z,99379.38
2022-10-10T23:11:05.670Z,99381.16
2022-10-10T23:13:32.921Z,99374.03
2022-10-10T23:15:59.389Z,99386.41
2022-10-10T23:18:27.957Z,99382.84
2022-10-10T23:20:54.399Z,99386.41
2022-10-10T23:23:20.927Z,99386.41
2022-10-10T23:25:48.174Z,99391.72
2022-10-10T23:28:16.730Z,99389.91
2022-10-10T23:30:45.611Z,99399.56
2022-10-10T23:33:12.939Z,99399.56
2022-10-10T23:35:39.461Z,99395.16
2022-10-10T23:38:06.214Z,99400.41
2022-10-10T23:40:36.407Z,99403.03
2022-10-10T23:43:02.970Z,99402.16
2022-10-10T23:45:29.438Z,99408.38
2022-10-10T23:47:55.995Z,99410.13
2022-10-10T23:50:22.534Z,99409.22
2022-10-10T23:52:49.022Z,99406.56
2022-10-10T23:55:15.578Z,99413.69
2022-10-10T23:57:42.051Z,99418.97
